Time;durP1;ratioP1;P1;durP2;ratioP2;P2;SDS_P1;SDS_P2;PMS_P1;PMS_P2;Temp;Humidity;BMP_temperature;BMP_pressure;BME280_temperature;BME280_humidity;BME280_pressure;Samples;Min_cycle;Max_cycle;Signal;HPM_P1;HPM_P2
2022/06/17 00:01:21;;;;;;;5.47;2.00;;;;;;;18.28;51.35;101846.94;5022779;28;20046;-68
2022/06/17 00:03:48;;;;;;;7.57;2.40;;;;;;;18.12;52.11;101845.41;5022143;28;20045;-68
2022/06/17 00:06:16;;;;;;;4.82;2.00;;;;;;;18.36;50.63;101834.03;5024436;28;20045;-68
2022/06/17 00:08:46;;;;;;;3.00;1.83;;;;;;;18.12;51.40;101835.63;5025369;28;20062;-68
2022/06/17 00:11:14;;;;;;;2.88;1.77;;;;;;;17.87;51.98;101846.16;5028078;28;20128;-68
2022/06/17 00:13:41;;;;;;;5.55;2.00;;;;;;;17.70;52.59;101838.44;5033452;28;20469;-68
2022/06/17 00:16:10;;;;;;;13.02;2.75;;;;;;;17.76;52.54;101846.00;5024649;28;20451;-68
2022/06/17 00:18:37;;;;;;;5.35;2.05;;;;;;;17.88;52.26;101842.56;5024928;28;20151;-68
2022/06/17 00:21:03;;;;;;;4.07;2.00;;;;;;;17.75;52.50;101842.47;5027851;28;20068;-68
2022/06/17 00:23:31;;;;;;;4.15;1.98;;;;;;;17.74;52.20;101848.72;5028859;28;20103;-68
2022/06/17 00:25:57;;;;;;;4.25;2.20;;;;;;;17.74;52.39;101845.22;5037538;28;20134;-68
2022/06/17 00:28:25;;;;;;;4.30;2.00;;;;;;;17.74;52.59;101854.03;5031085;28;20103;-68
2022/06/17 00:30:51;;;;;;;5.75;1.98;;;;;;;17.68;52.36;101851.78;5027102;28;22926;-68
2022/06/17 00:33:19;;;;;;;6.43;2.08;;;;;;;17.58;52.73;101858.63;5028336;28;20061;-68
2022/06/17 00:35:48;;;;;;;7.45;2.03;;;;;;;17.46;53.06;101849.59;5028511;28;20045;-68
2022/06/17 00:38:16;;;;;;;4.03;2.08;;;;;;;17.37;53.15;101851.97;5028528;28;20111;-68
2022/06/17 00:40:45;;;;;;;6.10;2.38;;;;;;;17.33;53.76;101861.09;5026493;28;20045;-68
2022/06/17 00:43:23;;;;;;;4.85;2.38;;;;;;;17.09;54.12;101866.09;5029125;28;20099;-68
2022/06/17 00:45:53;;;;;;;3.03;2.13;;;;;;;16.94;54.44;101856.41;5021152;28;20108;-68
2022/06/17 00:48:24;;;;;;;4.55;2.08;;;;;;;16.65;55.71;101857.31;5026711;28;20037;-68
2022/06/17 00:50:56;;;;;;;5.90;2.72;;;;;;;16.32;57.02;101860.97;5026212;28;20041;-68
2022/06/17 00:53:25;;;;;;;4.57;2.35;;;;;;;16.21;57.59;101852.78;5041428;28;20104;-68
2022/06/17 00:55:55;;;;;;;6.75;2.67;;;;;;;16.17;57.83;101858.34;5046716;28;20111;-68
2022/06/17 00:58:26;;;;;;;5.20;2.22;;;;;;;16.43;57.26;101860.34;5046614;28;20052;-68
2022/06/17 01:00:55;;;;;;;8.75;2.30;;;;;;;16.03;58.52;101852.06;5046392;28;20045;-68
2022/06/17 01:03:25;;;;;;;6.68;2.15;;;;;;;15.69;59.56;101854.88;5035909;28;20048;-68
2022/06/17 01:05:54;;;;;;;3.85;2.05;;;;;;;15.52;60.70;101861.06;5044424;28;20060;-68
2022/06/17 01:11:14;;;;;;;6.50;2.35;;;;;;;15.32;61.78;101850.69;5015220;28;20052;-68
2022/06/17 01:13:45;;;;;;;7.68;3.85;;;;;;;15.32;62.14;101855.97;5025752;28;20045;-68
2022/06/17 01:16:11;;;;;;;4.72;2.30;;;;;;;15.43;61.87;101852.75;5024220;28;20041;-68
2022/06/17 01:18:43;;;;;;;3.83;2.45;;;;;;;15.32;61.41;101860.41;5027324;28;20119;-68
2022/06/17 01:21:19;;;;;;;4.35;2.22;;;;;;;15.36;61.76;101862.81;5024283;28;20050;-68
2022/06/17 01:23:48;;;;;;;9.35;3.05;;;;;;;15.31;61.85;101853.41;5026334;28;20049;-68
2022/06/17 01:26:16;;;;;;;4.50;2.60;;;;;;;14.95;63.16;101861.50;5025169;28;20128;-68
2022/06/17 01:28:42;;;;;;;6.50;2.60;;;;;;;14.94;63.26;101855.38;5028998;28;20091;-69
2022/06/17 01:31:08;;;;;;;4.90;2.70;;;;;;;15.17;62.92;101853.31;5026454;28;20096;-69
2022/06/17 01:33:38;;;;;;;5.45;2.83;;;;;;;15.04;62.91;101856.59;5025429;28;20438;-69
2022/06/17 01:36:08;;;;;;;7.18;3.20;;;;;;;14.93;63.10;101864.22;5026621;28;20452;-69
2022/06/17 01:38:37;;;;;;;5.90;2.70;;;;;;;14.98;63.00;101870.13;5025032;28;20057;-69
2022/06/17 01:41:05;;;;;;;8.63;2.88;;;;;;;15.14;62.66;101874.59;5005607;28;20580;-69
2022/06/17 01:43:38;;;;;;;4.13;2.78;;;;;;;15.19;62.46;101876.06;5017842;28;20045;-68
2022/06/17 01:46:08;;;;;;;4.97;2.45;;;;;;;15.28;61.83;101874.72;5025690;28;20065;-69
2022/06/17 01:48:40;;;;;;;4.70;2.45;;;;;;;15.13;62.07;101892.25;5026607;28;20099;-70
2022/06/17 01:51:09;;;;;;;4.57;2.70;;;;;;;15.08;62.13;101886.31;5026185;28;20432;-70
2022/06/17 01:53:41;;;;;;;8.82;2.60;;;;;;;15.33;61.50;101883.28;5025417;28;20288;-71
2022/06/17 01:56:13;;;;;;;7.88;2.78;;;;;;;15.37;61.59;101876.88;5026285;28;20053;-70
2022/06/17 01:58:44;;;;;;;8.85;2.90;;;;;;;15.51;61.09;101871.75;5026323;28;20111;-70
2022/06/17 02:01:12;;;;;;;4.15;3.00;;;;;;;15.39;61.33;101870.56;5024360;28;20163;-70
2022/06/17 02:03:43;;;;;;;6.80;3.30;;;;;;;15.50;61.32;101864.72;5025382;28;20501;-70
2022/06/17 02:06:14;;;;;;;4.93;2.72;;;;;;;15.47;61.60;101872.81;5024787;28;20045;-70
2022/06/17 02:08:41;;;;;;;5.28;3.08;;;;;;;15.50;61.54;101870.88;5026052;28;20057;-71
2022/06/17 02:11:10;;;;;;;4.28;2.80;;;;;;;15.26;61.67;101869.50;5026364;28;20057;-71
2022/06/17 02:13:36;;;;;;;6.38;3.13;;;;;;;15.19;61.87;101870.75;5023207;28;20522;-71
2022/06/17 02:16:05;;;;;;;9.52;2.70;;;;;;;14.94;63.09;101859.78;5025138;28;20054;-71
2022/06/17 02:18:33;;;;;;;5.80;2.42;;;;;;;14.75;63.62;101856.38;5026006;28;20045;-71
2022/06/17 02:21:03;;;;;;;6.95;3.38;;;;;;;14.90;63.79;101868.81;5024038;28;20127;-70
2022/06/17 02:23:32;;;;;;;9.10;3.40;;;;;;;15.22;62.69;101862.72;5025615;28;20049;-70
2022/06/17 02:26:00;;;;;;;8.30;3.05;;;;;;;15.33;62.36;101857.69;5026706;28;20045;-70
2022/06/17 02:28:31;;;;;;;6.15;3.00;;;;;;;15.33;62.28;101877.97;5023974;28;20053;-70
2022/06/17 02:31:00;;;;;;;6.35;2.88;;;;;;;15.27;62.26;101879.16;5029486;28;20049;-70
2022/06/17 02:33:27;;;;;;;4.43;2.80;;;;;;;15.23;61.60;101877.59;5028889;28;20042;-71
2022/06/17 02:35:58;;;;;;;5.28;2.92;;;;;;;15.15;61.97;101868.41;5021270;28;20041;-69
2022/06/17 02:38:28;;;;;;;3.90;2.95;;;;;;;15.19;61.42;101875.22;5025917;28;20081;-70
2022/06/17 02:40:58;;;;;;;4.75;3.13;;;;;;;15.32;61.27;101877.13;5025354;28;20053;-70
2022/06/17 02:43:29;;;;;;;6.75;3.22;;;;;;;15.45;60.99;101883.44;5023545;28;20103;-70
2022/06/17 02:46:02;;;;;;;5.27;3.33;;;;;;;15.48;60.72;101880.63;5027257;28;20041;-71
2022/06/17 02:48:34;;;;;;;8.20;3.47;;;;;;;15.53;60.65;101886.56;5035634;28;20053;-70
2022/06/17 02:51:02;;;;;;;9.93;3.30;;;;;;;15.53;61.11;101876.00;5044937;28;20472;-70
2022/06/17 02:53:31;;;;;;;5.65;3.20;;;;;;;15.55;61.10;101878.56;5043945;28;20570;-70
2022/06/17 02:55:58;;;;;;;5.22;3.08;;;;;;;15.63;60.39;101886.09;5027773;28;20049;-70
2022/06/17 02:58:44;;;;;;;5.95;3.20;;;;;;;15.54;60.98;101888.28;5025711;28;20072;-70
2022/06/17 03:01:17;;;;;;;5.60;3.35;;;;;;;15.45;61.28;101882.59;5024854;28;20521;-71
2022/06/17 03:03:44;;;;;;;6.70;3.33;;;;;;;15.23;61.42;101874.97;5026428;28;20056;-71
2022/06/17 03:06:17;;;;;;;6.95;3.50;;;;;;;15.22;62.23;101885.63;5006272;28;20418;-71
2022/06/17 03:08:47;;;;;;;6.82;3.42;;;;;;;15.02;62.85;101881.38;5003916;28;20600;-71
2022/06/17 03:11:13;;;;;;;6.28;3.17;;;;;;;14.78;63.89;101882.66;5003465;28;20092;-71
2022/06/17 03:13:48;;;;;;;6.63;3.20;;;;;;;14.78;64.29;101883.47;5019312;28;20069;-71
2022/06/17 03:16:16;;;;;;;6.00;3.03;;;;;;;14.72;64.83;101890.88;5021288;28;20045;-71
2022/06/17 03:18:45;;;;;;;6.78;3.40;;;;;;;14.90;63.97;101882.88;5021867;28;20045;-71
2022/06/17 03:21:11;;;;;;;5.63;3.17;;;;;;;15.15;62.91;101879.78;5024173;28;20556;-71
2022/06/17 03:23:48;;;;;;;6.88;3.53;;;;;;;15.06;63.68;101882.94;5026035;28;20041;-71
2022/06/17 03:26:17;;;;;;;6.30;3.50;;;;;;;15.16;63.04;101886.78;5025334;28;20107;-70
2022/06/17 03:28:48;;;;;;;6.03;3.45;;;;;;;15.42;61.73;101888.03;5024605;28;20425;-71
2022/06/17 03:31:22;;;;;;;11.23;3.80;;;;;;;15.38;62.12;101897.06;5039135;28;20053;-71
2022/06/17 03:33:52;;;;;;;7.80;3.30;;;;;;;15.59;61.31;101898.63;5043604;28;20040;-71
2022/06/17 03:36:24;;;;;;;12.13;3.47;;;;;;;15.52;61.69;101899.88;5043140;28;20087;-71
2022/06/17 03:38:54;;;;;;;6.10;3.67;;;;;;;15.59;61.61;101903.91;5044354;28;20141;-71
2022/06/17 03:41:25;;;;;;;6.85;3.83;;;;;;;15.66;61.42;101910.56;5044364;28;20167;-71
2022/06/17 03:44:00;;;;;;;10.00;3.83;;;;;;;16.04;59.99;101919.00;5031656;28;20045;-71
2022/06/17 03:46:30;;;;;;;6.72;4.28;;;;;;;16.13;59.52;101913.22;5029087;28;20060;-71
2022/06/17 03:49:05;;;;;;;7.05;3.85;;;;;;;15.89;60.80;101928.66;5026969;28;20050;-71
2022/06/17 03:51:34;;;;;;;7.25;3.63;;;;;;;15.84;60.67;101920.13;5027414;28;20061;-71
2022/06/17 03:54:01;;;;;;;6.75;4.03;;;;;;;15.83;61.24;101918.41;5027198;28;20111;-71
2022/06/17 03:56:30;;;;;;;9.35;3.97;;;;;;;15.99;60.71;101921.09;5027146;28;20076;-71
2022/06/17 03:59:03;;;;;;;7.70;4.07;;;;;;;16.07;60.62;101922.34;5027476;28;20057;-71
2022/06/17 04:01:35;;;;;;;8.52;3.88;;;;;;;16.07;60.75;101935.56;5029252;28;20102;-71
2022/06/17 04:04:06;;;;;;;8.05;4.47;;;;;;;16.21;60.28;101928.66;5027457;28;20179;-71
2022/06/17 04:06:37;;;;;;;7.35;4.18;;;;;;;16.44;59.42;101934.34;5027272;28;20037;-71
2022/06/17 04:09:13;;;;;;;11.93;4.35;;;;;;;16.19;60.61;101931.38;5027180;28;20498;-71
2022/06/17 04:11:41;;;;;;;8.60;4.15;;;;;;;16.04;61.29;101937.53;5027678;28;20413;-70
2022/06/17 04:14:18;;;;;;;19.92;4.65;;;;;;;16.60;59.19;101936.16;5027739;28;20046;-70
2022/06/17 04:16:52;;;;;;;10.82;4.78;;;;;;;16.82;58.05;101941.91;5028838;28;20119;-70
2022/06/17 04:19:21;;;;;;;13.90;4.45;;;;;;;16.95;58.15;101938.47;5028180;28;20061;-71
2022/06/17 04:21:48;;;;;;;18.05;4.43;;;;;;;16.68;59.18;101929.47;5025703;28;20045;-71
2022/06/17 04:24:18;;;;;;;7.50;4.30;;;;;;;16.60;59.25;101929.06;5027202;28;20107;-71
2022/06/17 04:26:46;;;;;;;8.65;4.50;;;;;;;16.97;57.99;101933.91;5032552;28;20048;-70
2022/06/17 04:29:19;;;;;;;11.60;4.57;;;;;;;16.95;57.88;101934.97;5045801;28;20049;-70
2022/06/17 04:31:51;;;;;;;5.22;3.95;;;;;;;16.89;58.52;101936.16;5048141;28;20052;-70
2022/06/17 04:34:19;;;;;;;6.70;3.90;;;;;;;17.39;56.77;101935.78;5045825;28;20466;-70
2022/06/17 04:36:50;;;;;;;9.02;4.45;;;;;;;17.41;56.55;101927.72;5048272;28;20049;-70
2022/06/17 04:39:22;;;;;;;8.38;4.30;;;;;;;17.53;56.72;101924.31;5048064;28;20394;-70
2022/06/17 04:41:50;;;;;;;;;;;;;;;17.63;56.00;101921.97;5036364;28;20062;-71
2022/06/17 04:44:17;;;;;;;10.85;4.25;;;;;;;17.41;57.29;101925.06;5025800;28;19947;-70
2022/06/17 04:46:49;;;;;;;7.30;4.80;;;;;;;17.49;57.23;101936.91;5027475;28;20563;-70
2022/06/17 04:49:18;;;;;;;11.25;4.97;;;;;;;17.47;56.87;101933.53;5026923;28;20042;-70
2022/06/17 04:51:46;;;;;;;8.30;5.25;;;;;;;17.66;56.79;101919.16;5026908;28;20436;-70
2022/06/17 04:54:12;;;;;;;10.50;4.97;;;;;;;17.94;55.34;101916.44;5024551;28;20049;-70
2022/06/17 04:56:42;;;;;;;9.32;5.88;;;;;;;18.00;54.96;101922.22;5028603;28;20061;-70
2022/06/17 04:59:30;;;;;;;12.13;4.80;;;;;;;18.18;54.97;101914.84;5026915;28;20073;-70
2022/06/17 05:01:57;;;;;;;8.55;4.88;;;;;;;18.26;54.72;101919.66;5031023;28;20555;-70
2022/06/17 05:04:25;;;;;;;10.93;5.25;;;;;;;18.40;53.38;101917.81;5035646;28;20109;-71
2022/06/17 05:06:52;;;;;;;12.18;4.95;;;;;;;18.58;53.60;101912.28;5024903;28;20041;-70
2022/06/17 05:09:22;;;;;;;12.40;5.55;;;;;;;18.89;52.39;101914.56;5026982;28;20050;-70
2022/06/17 05:11:52;;;;;;;12.45;5.30;;;;;;;18.96;52.55;101913.19;5026951;28;20068;-70
2022/06/17 05:14:25;;;;;;;12.98;5.97;;;;;;;18.89;52.93;101918.09;5024745;28;20127;-70
2022/06/17 05:16:51;;;;;;;;;;;;;;;18.99;52.55;101922.78;5007470;28;20050;-69
2022/06/17 05:19:20;;;;;;;8.75;5.30;;;;;;;19.08;51.23;101933.63;5005968;28;19960;-70
2022/06/17 05:21:47;;;;;;;7.38;4.90;;;;;;;19.00;52.96;101930.66;5025288;28;20049;-68
2022/06/17 05:24:13;;;;;;;10.43;5.28;;;;;;;19.59;50.57;101931.00;5026395;28;20091;-69
2022/06/17 05:26:40;;;;;;;11.00;4.80;;;;;;;19.51;51.33;101926.22;5025935;28;20416;-70
2022/06/17 05:29:08;;;;;;;10.63;4.97;;;;;;;19.64;51.10;101924.41;5025588;28;20073;-69
2022/06/17 05:31:36;;;;;;;7.70;5.05;;;;;;;20.35;48.82;101927.22;5026125;28;20045;-69
2022/06/17 05:34:02;;;;;;;11.68;5.55;;;;;;;20.46;48.49;101936.22;5025792;28;20052;-69
2022/06/17 05:36:28;;;;;;;7.38;4.80;;;;;;;20.68;48.47;101931.84;5027388;28;20179;-70
2022/06/17 05:38:55;;;;;;;9.63;4.60;;;;;;;20.84;48.14;101939.53;5026470;28;20049;-70
2022/06/17 05:41:24;;;;;;;9.55;4.53;;;;;;;20.97;48.06;101942.97;5026732;28;20437;-70
2022/06/17 05:43:51;;;;;;;7.85;4.50;;;;;;;21.77;45.42;101931.31;5023469;28;20045;-70
2022/06/17 05:46:18;;;;;;;8.88;4.80;;;;;;;21.92;44.98;101939.94;5026909;28;20045;-69
2022/06/17 05:48:45;;;;;;;9.70;4.88;;;;;;;22.35;44.10;101941.81;5024760;28;20053;-69
2022/06/17 05:51:12;;;;;;;9.32;4.00;;;;;;;22.32;44.66;101945.56;5026712;28;20050;-69
2022/06/17 05:53:39;;;;;;;9.68;4.55;;;;;;;22.76;43.40;101941.94;5025246;28;20053;-69
2022/06/17 05:56:05;;;;;;;13.80;4.43;;;;;;;22.84;42.40;101936.75;5024052;28;20057;-69
2022/06/17 05:58:32;;;;;;;13.55;4.07;;;;;;;22.76;42.56;101944.63;5025977;28;20045;-69
2022/06/17 06:00:58;;;;;;;13.23;5.20;;;;;;;22.58;42.37;101946.13;5025508;28;20119;-69
2022/06/17 06:03:27;;;;;;;7.80;4.05;;;;;;;22.75;42.42;101950.94;5029654;28;20049;-70
2022/06/17 06:05:55;;;;;;;8.07;4.10;;;;;;;22.93;42.34;101951.19;5029957;28;20119;-70
2022/06/17 06:08:21;;;;;;;10.73;4.75;;;;;;;22.99;42.79;101956.88;5027548;28;20135;-70
2022/06/17 06:10:48;;;;;;;9.23;4.78;;;;;;;23.01;41.93;101951.41;5023772;28;20072;-69
2022/06/17 06:13:16;;;;;;;12.13;4.72;;;;;;;23.21;42.58;101959.41;5025763;28;20068;-69
2022/06/17 06:15:46;;;;;;;9.48;4.55;;;;;;;23.40;41.63;101949.81;5026019;28;20528;-69
2022/06/17 06:18:14;;;;;;;6.50;4.30;;;;;;;23.61;41.16;101953.34;5035011;28;20048;-70
2022/06/17 06:20:41;;;;;;;7.82;4.20;;;;;;;23.58;41.34;101961.63;5044928;28;20463;-70
2022/06/17 06:23:09;;;;;;;7.30;4.28;;;;;;;23.89;39.21;101946.38;5040116;28;20045;-70
2022/06/17 06:25:35;;;;;;;11.07;4.47;;;;;;;23.73;40.31;101957.59;5024436;28;20042;-69
2022/06/17 06:28:10;;;;;;;8.57;4.25;;;;;;;23.88;40.78;101964.28;5026305;28;20530;-70
2022/06/17 06:30:36;;;;;;;9.30;3.95;;;;;;;24.19;40.15;101959.78;5025889;28;20409;-70
2022/06/17 06:33:03;;;;;;;8.23;4.50;;;;;;;24.52;39.81;101955.88;5024014;28;20405;-70
2022/06/17 06:35:32;;;;;;;6.20;3.10;;;;;;;24.97;39.34;101962.41;5025692;28;20091;-70
2022/06/17 06:37:58;;;;;;;12.27;4.40;;;;;;;25.17;38.85;101972.09;5026128;28;20420;-70
2022/06/17 06:40:27;;;;;;;5.20;3.75;;;;;;;25.43;37.26;101982.22;5023633;28;20100;-70
2022/06/17 06:42:55;;;;;;;8.88;3.30;;;;;;;26.31;35.79;101971.00;5034702;28;20042;-70
2022/06/17 06:45:23;;;;;;;9.52;3.67;;;;;;;26.47;35.77;101977.38;5025798;28;20069;-70
2022/06/17 06:47:51;;;;;;;7.32;4.10;;;;;;;26.64;34.69;101979.22;5024269;28;20100;-70
2022/06/17 06:50:21;;;;;;;9.23;3.55;;;;;;;26.42;35.73;101984.22;5024900;28;20038;-69
2022/06/17 06:52:48;;;;;;;6.30;3.40;;;;;;;26.39;36.72;101973.75;5027959;28;20482;-69
2022/06/17 06:55:15;;;;;;;8.25;3.65;;;;;;;26.18;35.60;101968.66;5026555;28;20390;-68
2022/06/17 06:57:51;;;;;;;9.63;3.88;;;;;;;26.16;35.80;101974.16;5035647;28;20494;-68
2022/06/17 07:00:20;;;;;;;8.45;3.40;;;;;;;26.39;37.26;101984.50;5022796;28;20049;-68
2022/06/17 07:02:47;;;;;;;7.13;3.30;;;;;;;26.48;37.93;101972.84;5024065;28;20049;-69
2022/06/17 07:05:13;;;;;;;6.80;3.97;;;;;;;26.86;36.37;101977.97;5025518;28;20049;-69
2022/06/17 07:07:40;;;;;;;7.35;3.92;;;;;;;27.23;35.20;101971.53;5024648;28;20046;-69
2022/06/17 07:10:09;;;;;;;5.53;3.40;;;;;;;26.82;35.30;101979.25;5022766;28;20053;-69
2022/06/17 07:12:35;;;;;;;9.23;3.70;;;;;;;26.77;33.28;101969.94;5025776;28;20414;-69
2022/06/17 07:15:03;;;;;;;7.70;3.42;;;;;;;27.36;32.01;101985.41;5024103;28;20042;-68
2022/06/17 07:17:30;;;;;;;4.75;3.00;;;;;;;27.18;34.19;101988.16;5024211;28;20045;-68
2022/06/17 07:19:56;;;;;;;5.30;3.10;;;;;;;27.52;34.13;101981.00;5023622;28;20068;-69
2022/06/17 07:22:23;;;;;;;9.73;3.42;;;;;;;27.82;34.37;101982.34;5023728;28;20045;-70
2022/06/17 07:24:49;;;;;;;5.63;3.35;;;;;;;27.54;33.50;101983.53;5023253;28;20045;-69
2022/06/17 07:27:16;;;;;;;10.07;3.25;;;;;;;28.14;30.93;101978.97;5025652;28;20049;-69
2022/06/17 07:29:42;;;;;;;7.25;3.85;;;;;;;27.67;32.56;101983.94;5022590;28;20045;-69
2022/06/17 07:32:10;;;;;;;7.95;3.60;;;;;;;27.72;34.05;101991.53;5021660;28;20068;-69
2022/06/17 07:34:36;;;;;;;9.25;3.88;;;;;;;27.86;33.02;101986.38;5043564;28;20099;-69
2022/06/17 07:39:57;;;;;;;10.18;4.32;;;;;;;27.96;33.36;101991.66;5043678;28;20051;-69
2022/06/17 07:42:25;;;;;;;8.85;4.20;;;;;;;28.15;34.13;101987.91;5023300;28;20573;-69
2022/06/17 07:44:52;;;;;;;8.50;3.85;;;;;;;28.57;32.53;101996.75;5016054;28;20041;-69
2022/06/17 07:47:23;;;;;;;13.50;4.72;;;;;;;28.67;32.81;101994.78;5032417;28;20093;-69
2022/06/17 07:49:50;;;;;;;14.27;5.45;;;;;;;28.59;30.76;101997.44;5041709;28;20108;-69
2022/06/17 07:52:17;;;;;;;7.38;4.60;;;;;;;28.26;29.83;101998.38;5028298;28;20045;-68
2022/06/17 07:54:43;;;;;;;5.88;3.58;;;;;;;28.50;30.09;101995.72;5035712;28;20501;-68
2022/06/17 07:57:12;;;;;;;15.63;3.53;;;;;;;28.49;31.29;101988.66;5035820;28;20162;-69
2022/06/17 07:59:39;;;;;;;7.10;2.95;;;;;;;28.81;32.14;101996.84;5040726;28;20045;-68
2022/06/17 08:02:06;;;;;;;7.93;3.50;;;;;;;28.44;30.12;101999.09;5032682;28;20075;-68
2022/06/17 08:04:34;;;;;;;9.30;4.03;;;;;;;28.66;30.03;101976.88;5025481;28;20049;-68
2022/06/17 08:07:01;;;;;;;6.38;3.10;;;;;;;29.28;31.65;101983.50;5043235;28;20053;-68
2022/06/17 08:09:28;;;;;;;8.40;3.97;;;;;;;29.16;28.54;101982.13;5040189;28;20041;-68
2022/06/17 08:11:55;;;;;;;9.20;3.90;;;;;;;29.10;29.54;101987.38;5036475;28;20045;-68
2022/06/17 08:14:21;;;;;;;6.10;3.45;;;;;;;28.59;28.94;101980.41;5023946;28;20045;-68
2022/06/17 08:16:48;;;;;;;5.45;2.80;;;;;;;28.05;30.59;101975.34;5039363;28;20075;-68
2022/06/17 08:19:15;;;;;;;9.02;2.90;;;;;;;28.46;31.87;101980.88;5043914;28;20728;-69
2022/06/17 08:21:43;;;;;;;7.35;3.40;;;;;;;29.18;30.07;101980.13;5023933;28;20073;-69
2022/06/17 08:24:10;;;;;;;10.20;3.72;;;;;;;29.74;28.39;101978.34;5026183;28;20127;-67
2022/06/17 08:26:36;;;;;;;7.22;3.97;;;;;;;29.23;28.77;101968.81;5034016;28;20493;-68
2022/06/17 08:29:03;;;;;;;11.45;4.45;;;;;;;28.90;27.78;101973.38;5036500;28;20366;-67
2022/06/17 08:31:29;;;;;;;9.32;3.55;;;;;;;27.91;30.12;101975.97;5027297;28;20041;-67
2022/06/17 08:33:55;;;;;;;8.25;3.42;;;;;;;28.64;29.76;101967.28;5028723;28;20082;-67
2022/06/17 08:36:26;;;;;;;7.82;3.80;;;;;;;28.79;30.47;101966.44;5026508;28;20045;-67
2022/06/17 08:39:00;;;;;;;5.82;3.25;;;;;;;29.20;28.74;101963.72;5012402;28;20096;-68
2022/06/17 08:41:30;;;;;;;7.10;2.97;;;;;;;29.43;29.51;101965.56;5043958;28;20424;-67
2022/06/17 08:44:14;;;;;;;6.13;2.85;;;;;;;29.70;29.14;101966.19;5032186;28;20091;-67
2022/06/17 08:46:59;;;;;;;6.35;2.90;;;;;;;29.76;27.98;101960.91;5038825;28;20045;-67
2022/06/17 08:49:42;;;;;;;6.00;2.80;;;;;;;29.49;27.22;101958.63;5023172;28;20482;-67
2022/06/17 08:52:25;;;;;;;4.45;2.75;;;;;;;28.64;29.31;101953.78;5027200;28;20045;-67
2022/06/17 08:55:03;;;;;;;9.38;2.70;;;;;;;28.75;28.84;101965.09;5012595;28;20049;-67
2022/06/17 08:57:36;;;;;;;5.72;2.65;;;;;;;28.51;31.64;101954.25;5036525;28;20076;-67
2022/06/17 09:00:11;;;;;;;6.22;2.80;;;;;;;29.47;31.04;101949.88;5023391;28;20127;-68
2022/06/17 09:02:57;;;;;;;7.50;2.97;;;;;;;29.33;28.77;101953.28;5034914;28;20041;-67
2022/06/17 09:05:36;;;;;;;6.35;3.83;;;;;;;29.01;28.43;101957.66;5043033;28;20045;-67
2022/06/17 09:08:18;;;;;;;6.22;3.25;;;;;;;29.31;28.06;101958.84;5046965;28;20072;-67
2022/06/17 09:10:59;;;;;;;5.80;3.03;;;;;;;28.51;30.57;101959.66;5031752;28;20065;-68
2022/06/17 09:13:36;;;;;;;8.10;3.90;;;;;;;28.75;28.77;101957.00;5027759;28;20168;-68
2022/06/17 09:16:11;;;;;;;5.80;3.65;;;;;;;28.41;28.50;101948.19;5028286;28;20049;-68
2022/06/17 09:18:40;;;;;;;12.20;3.90;;;;;;;27.73;29.44;101950.97;5027906;28;20091;-68
2022/06/17 09:21:13;;;;;;;7.28;3.40;;;;;;;27.51;29.89;101946.97;5025488;28;20111;-68
2022/06/17 09:23:41;;;;;;;6.28;3.15;;;;;;;28.41;29.83;101950.88;5026668;28;20131;-68
2022/06/17 09:26:15;;;;;;;9.15;3.55;;;;;;;28.47;28.19;101944.81;5026383;28;20661;-68
2022/06/17 09:28:47;;;;;;;8.52;2.75;;;;;;;28.78;30.32;101950.44;5025681;28;20069;-68
2022/06/17 09:31:18;;;;;;;9.95;2.95;;;;;;;29.21;27.99;101930.31;5026381;28;20053;-66
2022/06/17 09:33:50;;;;;;;8.30;3.05;;;;;;;29.64;25.91;101942.56;5007242;28;20042;-66
2022/06/17 09:36:19;;;;;;;;;;;;;;;29.50;27.02;101933.28;5023442;28;20045;-66
2022/06/17 09:38:50;;;;;;;4.00;2.50;;;;;;;29.20;25.45;101942.13;5022320;28;20005;-68
2022/06/17 09:41:24;;;;;;;8.90;2.58;;;;;;;29.21;27.47;101941.09;5026490;28;20077;-68
2022/06/17 09:43:56;;;;;;;4.97;2.30;;;;;;;29.90;26.97;101938.56;5025124;28;20072;-68
2022/06/17 09:46:27;;;;;;;6.60;2.50;;;;;;;29.91;27.25;101932.16;5025112;28;20077;-68
2022/06/17 09:48:59;;;;;;;5.68;2.58;;;;;;;30.41;25.47;101936.25;5027491;28;20449;-69
2022/06/17 09:51:34;;;;;;;7.00;2.67;;;;;;;30.57;29.26;101933.44;5016748;28;20631;-69
2022/06/17 09:54:05;;;;;;;6.00;2.85;;;;;;;30.17;27.58;101933.69;5024458;28;20069;-69
2022/06/17 09:56:40;;;;;;;4.45;2.90;;;;;;;29.91;26.85;101924.03;5026817;28;20064;-68
2022/06/17 09:59:16;;;;;;;4.72;2.67;;;;;;;29.91;26.25;101925.91;5025325;28;20108;-68
2022/06/17 10:01:44;;;;;;;6.95;3.25;;;;;;;29.75;29.75;101926.78;5024918;28;20045;-68
2022/06/17 10:04:12;;;;;;;8.90;3.55;;;;;;;29.25;26.59;101928.94;5023834;28;20068;-68
2022/06/17 10:06:46;;;;;;;6.70;3.40;;;;;;;29.52;29.90;101923.16;5025060;28;20138;-68
2022/06/17 10:09:29;;;;;;;3.95;2.42;;;;;;;30.20;30.53;101914.41;5022848;28;20103;-68
2022/06/17 10:12:03;;;;;;;7.70;2.72;;;;;;;30.79;26.65;101915.50;5024464;28;20095;-68
2022/06/17 10:14:47;;;;;;;10.48;3.00;;;;;;;31.51;28.13;101919.34;5023329;28;20059;-68
2022/06/17 10:20:17;;;;;;;6.22;2.30;;;;;;;30.27;24.69;101904.53;5028549;28;20578;-68
2022/06/17 10:22:54;;;;;;;6.57;2.53;;;;;;;29.78;24.42;101899.41;5026096;28;20111;-68
2022/06/17 10:25:41;;;;;;;5.30;2.33;;;;;;;29.66;24.89;101906.22;5034019;28;20462;-68
2022/06/17 10:28:32;;;;;;;4.68;2.50;;;;;;;30.07;25.33;101897.91;5044047;28;20493;-68
2022/06/17 10:31:00;;;;;;;5.90;2.55;;;;;;;30.13;24.87;101886.38;5027351;28;20110;-68
2022/06/17 10:33:31;;;;;;;6.45;2.63;;;;;;;29.99;25.14;101888.00;5024166;28;20099;-68
2022/06/17 10:35:57;;;;;;;9.68;2.97;;;;;;;29.60;25.31;101887.16;5024946;28;20103;-68
2022/06/17 10:38:28;;;;;;;6.60;2.80;;;;;;;29.08;27.89;101886.78;5026085;28;20493;-68
2022/06/17 10:40:54;;;;;;;8.25;2.30;;;;;;;29.26;25.30;101885.56;5041379;28;20048;-68
2022/06/17 10:43:26;;;;;;;3.78;2.08;;;;;;;29.29;25.43;101879.00;5034002;28;20054;-68
2022/06/17 10:45:53;;;;;;;9.23;2.60;;;;;;;28.92;28.32;101872.31;5017252;28;20072;-68
2022/06/17 10:48:30;;;;;;;5.03;2.55;;;;;;;29.15;27.28;101879.69;5023082;28;20783;-68
2022/06/17 10:50:57;;;;;;;6.47;2.17;;;;;;;30.27;28.80;101872.06;5024400;28;20138;-68
2022/06/17 10:53:28;;;;;;;4.40;2.28;;;;;;;31.17;26.63;101873.84;5044118;28;20095;-68
2022/06/17 10:55:58;;;;;;;4.10;1.80;;;;;;;31.75;24.49;101880.25;5044243;28;20141;-68
2022/06/17 10:58:29;;;;;;;3.45;1.92;;;;;;;31.75;21.45;101880.25;5045687;28;20306;-66
2022/06/17 11:00:59;;;;;;;4.13;1.73;;;;;;;31.44;25.15;101887.75;5043977;28;20045;-67
2022/06/17 11:03:29;;;;;;;5.30;2.03;;;;;;;31.28;22.52;101878.78;5036900;28;20310;-67
2022/06/17 11:05:59;;;;;;;2.83;1.48;;;;;;;31.55;22.48;101879.19;5021180;28;20135;-68
2022/06/17 11:08:29;;;;;;;2.97;1.95;;;;;;;31.83;23.30;101872.84;5026012;28;20045;-68
2022/06/17 11:12:02;;;;;;;4.90;1.50;;;;;;;31.84;23.38;101869.13;5023639;28;20065;-69
2022/06/17 11:13:47;;;;;;;3.78;1.50;;;;;;;32.11;24.58;101872.16;5023369;28;20080;-68
2022/06/17 11:16:17;;;;;;;4.90;1.70;;;;;;;31.43;22.08;101867.94;5024163;28;20069;-68
2022/06/17 11:18:49;;;;;;;3.28;1.75;;;;;;;31.81;21.19;101864.09;5033316;28;20052;-68
2022/06/17 11:21:22;;;;;;;6.68;2.15;;;;;;;31.57;30.52;101861.69;5024109;28;20088;-68
2022/06/17 11:23:52;;;;;;;2.88;1.73;;;;;;;31.66;33.56;101860.56;5022614;28;20437;-68
2022/06/17 11:26:21;;;;;;;4.95;1.75;;;;;;;31.26;24.28;101861.06;5023659;28;20107;-68
2022/06/17 11:28:52;;;;;;;3.20;1.55;;;;;;;31.11;21.91;101854.78;5023976;28;20045;-68
2022/06/17 11:31:33;;;;;;;5.20;1.85;;;;;;;31.07;24.06;101842.63;5022255;28;20050;-68
2022/06/17 11:34:02;;;;;;;6.47;1.90;;;;;;;31.77;23.78;101846.50;5017034;28;20108;-68
2022/06/17 11:36:31;;;;;;;3.92;1.75;;;;;;;31.66;22.86;101846.16;5023781;28;20098;-68
2022/06/17 11:39:13;;;;;;;7.60;1.55;;;;;;;31.55;25.73;101847.50;5022108;28;20103;-68
2022/06/17 11:41:42;;;;;;;3.25;1.77;;;;;;;31.25;24.86;101845.81;5022041;28;20104;-68
2022/06/17 11:44:16;;;;;;;3.33;1.50;;;;;;;31.01;23.07;101841.50;5022215;28;20045;-68
2022/06/17 11:46:49;;;;;;;5.38;1.70;;;;;;;30.96;25.84;101841.19;5023298;28;20046;-68